Time;durP1;ratioP1;P1;durP2;ratioP2;P2;SDS_P1;SDS_P2;PMS_P1;PMS_P2;Temp;Humidity;BMP_temperature;BMP_pressure;BME280_temperature;BME280_humidity;BME280_pressure;Samples;Min_cycle;Max_cycle;Signal;HPM_P1;HPM_P2
2022/05/05 00:01:41;;;;;;;7.57;4.70;;;10.60;99.90;;;;;;5080934;28;20442;-58
2022/05/05 00:04:08;;;;;;;6.47;5.30;;;10.60;99.90;;;;;;5073193;28;20861;-58
2022/05/05 00:06:34;;;;;;;8.13;5.53;;;10.60;99.90;;;;;;5080170;28;20467;-59
2022/05/05 00:09:00;;;;;;;8.40;5.33;;;10.60;99.90;;;;;;5097928;28;21065;-58
2022/05/05 00:14:27;;;;;;;9.43;5.40;;;10.60;99.90;;;;;;5099921;28;20568;-57
2022/05/05 00:16:57;;;;;;;15.83;4.80;;;10.60;99.90;;;;;;5086818;28;20481;-58
2022/05/05 00:19:24;;;;;;;7.13;5.30;;;10.50;99.90;;;;;;5095309;28;20810;-58
2022/05/05 00:21:50;;;;;;;5.90;4.70;;;10.50;99.90;;;;;;5082394;28;20943;-57
2022/05/05 00:24:16;;;;;;;12.17;5.40;;;10.50;99.90;;;;;;5095181;28;20550;-58
2022/05/05 00:26:42;;;;;;;5.43;4.93;;;10.50;99.90;;;;;;5100465;28;20162;-56
2022/05/05 00:29:08;;;;;;;7.03;4.90;;;10.50;99.90;;;;;;5094200;28;20438;-56
2022/05/05 00:31:34;;;;;;;6.90;5.10;;;10.50;99.90;;;;;;5105244;28;20590;-57
2022/05/05 00:33:59;;;;;;;8.00;5.60;;;10.50;99.90;;;;;;5103764;28;20197;-56
2022/05/05 00:36:25;;;;;;;7.40;5.20;;;10.40;99.90;;;;;;5102268;28;20268;-57
2022/05/05 00:38:51;;;;;;;6.17;4.80;;;10.40;99.90;;;;;;5095405;28;20182;-56
2022/05/05 00:41:16;;;;;;;10.43;4.93;;;10.50;99.90;;;;;;5106488;28;20693;-58
2022/05/05 00:43:43;;;;;;;5.20;4.70;;;10.40;99.90;;;;;;5101524;28;20396;-58
2022/05/05 00:46:08;;;;;;;7.33;5.43;;;10.40;99.90;;;;;;5100805;28;20170;-57
2022/05/05 00:48:34;;;;;;;7.03;4.67;;;10.40;99.90;;;;;;5094665;28;20507;-56
2022/05/05 00:51:00;;;;;;;5.43;4.83;;;10.40;99.90;;;;;;5099053;28;20257;-58
2022/05/05 00:53:26;;;;;;;6.00;4.57;;;10.40;99.90;;;;;;5102238;28;20205;-57
2022/05/05 00:55:55;;;;;;;4.83;4.43;;;10.40;99.90;;;;;;5079916;28;20178;-58
2022/05/05 00:58:23;;;;;;;5.30;4.60;;;10.40;99.90;;;;;;5099646;28;20803;-57
2022/05/05 01:00:49;;;;;;;4.90;4.40;;;10.40;99.90;;;;;;5081289;28;20979;-57
2022/05/05 01:03:15;;;;;;;6.33;4.83;;;10.40;99.90;;;;;;5097857;28;20465;-58
2022/05/05 01:05:42;;;;;;;9.57;5.13;;;10.40;99.90;;;;;;5096854;28;20434;-57
2022/05/05 01:08:09;;;;;;;7.00;4.87;;;10.30;99.90;;;;;;5099266;28;20545;-58
2022/05/05 01:10:34;;;;;;;5.70;4.57;;;10.30;99.90;;;;;;5103693;28;20432;-57
2022/05/05 01:13:03;;;;;;;5.50;5.00;;;10.30;99.90;;;;;;5087379;28;21207;-58
2022/05/05 01:15:30;;;;;;;9.87;6.60;;;10.30;99.90;;;;;;5103789;28;20438;-58
2022/05/05 01:17:56;;;;;;;6.60;5.17;;;10.30;99.90;;;;;;5098747;28;20838;-58
2022/05/05 01:20:22;;;;;;;7.43;5.37;;;10.30;99.90;;;;;;5104843;28;20469;-58
2022/05/05 01:22:49;;;;;;;7.87;5.07;;;10.30;99.90;;;;;;5095050;28;20546;-58
2022/05/05 01:28:11;;;;;;;5.30;4.53;;;10.30;99.90;;;;;;5101489;28;20426;-57
2022/05/05 01:30:46;;;;;;;5.40;4.90;;;10.30;99.90;;;;;;5108784;28;20808;-58
2022/05/05 01:33:17;;;;;;;5.53;4.00;;;10.30;99.90;;;;;;5099907;28;20447;-57
2022/05/05 01:35:46;;;;;;;7.40;5.17;;;10.30;99.90;;;;;;5107885;28;20430;-57
2022/05/05 01:38:13;;;;;;;5.97;5.10;;;10.30;99.90;;;;;;5106079;28;21021;-57
2022/05/05 01:40:46;;;;;;;5.80;5.00;;;10.20;99.90;;;;;;5105806;28;20770;-57
2022/05/05 01:43:13;;;;;;;7.63;5.40;;;10.20;99.90;;;;;;5106034;28;20454;-57
2022/05/05 01:45:39;;;;;;;6.17;5.57;;;10.20;99.90;;;;;;5102940;28;20513;-58
2022/05/05 01:48:05;;;;;;;7.03;4.93;;;10.30;99.90;;;;;;5101865;28;20431;-57
2022/05/05 01:50:31;;;;;;;7.70;5.30;;;10.30;99.90;;;;;;5105673;28;20499;-58
2022/05/05 01:52:58;;;;;;;6.93;5.37;;;10.30;99.90;;;;;;5087894;28;20549;-57
2022/05/05 01:55:23;;;;;;;7.90;6.20;;;10.30;99.90;;;;;;5108228;28;20426;-57
2022/05/05 01:57:50;;;;;;;7.63;5.40;;;10.30;99.90;;;;;;5095395;28;20430;-58
2022/05/05 02:00:17;;;;;;;6.03;5.10;;;10.30;99.90;;;;;;5099541;28;20694;-56
2022/05/05 02:02:44;;;;;;;7.37;5.00;;;10.30;99.90;;;;;;5101692;28;20493;-57
2022/05/05 02:05:10;;;;;;;5.30;4.57;;;10.30;99.90;;;;;;5103979;28;20425;-56
2022/05/05 02:07:37;;;;;;;5.30;4.80;;;10.30;99.90;;;;;;5086001;28;20426;-58
2022/05/05 02:10:04;;;;;;;9.80;5.13;;;10.30;99.90;;;;;;5105262;28;20435;-57
2022/05/05 02:12:35;;;;;;;5.80;5.00;;;10.40;99.90;;;;;;5103675;28;20450;-58
2022/05/05 02:15:06;;;;;;;4.90;4.40;;;10.30;99.90;;;;;;5100727;28;20995;-57
2022/05/05 02:17:32;;;;;;;7.47;4.97;;;10.40;99.90;;;;;;5108697;28;20811;-57
2022/05/05 02:20:00;;;;;;;5.60;4.53;;;10.40;99.90;;;;;;5105426;28;20446;-58
2022/05/05 02:22:25;;;;;;;5.17;4.67;;;10.40;99.90;;;;;;5089771;28;20473;-58
2022/05/05 02:24:51;;;;;;;5.70;5.00;;;10.30;99.90;;;;;;5105578;28;20458;-59
2022/05/05 02:27:18;;;;;;;5.60;4.50;;;10.30;99.90;;;;;;5100109;28;20176;-57
2022/05/05 02:29:44;;;;;;;4.70;4.30;;;10.30;99.90;;;;;;5104143;28;20173;-57
2022/05/05 02:32:10;;;;;;;5.80;5.20;;;10.30;99.90;;;;;;5098342;28;20853;-58
2022/05/05 02:34:35;;;;;;;7.37;5.07;;;10.30;99.90;;;;;;5102333;28;20407;-58
2022/05/05 02:39:46;;;;;;;6.43;5.20;;;10.30;99.90;;;;;;5096422;28;20293;-58
2022/05/05 02:42:11;;;;;;;6.33;4.50;;;10.30;99.90;;;;;;5105567;28;21096;-58
2022/05/05 02:44:37;;;;;;;5.60;4.83;;;10.30;99.90;;;;;;5106357;28;20291;-57
2022/05/05 02:47:04;;;;;;;5.00;4.50;;;10.30;99.90;;;;;;5106062;28;20259;-58
2022/05/05 02:49:30;;;;;;;7.07;5.10;;;10.20;99.90;;;;;;5090136;28;20604;-58
2022/05/05 02:51:55;;;;;;;5.77;4.97;;;10.30;99.90;;;;;;5093151;28;20510;-58
2022/05/05 02:57:06;;;;;;;7.17;5.07;;;10.20;99.90;;;;;;5101532;28;20313;-58
2022/05/05 02:59:31;;;;;;;9.30;6.17;;;10.20;99.90;;;;;;5083727;28;20490;-59
2022/05/05 03:01:58;;;;;;;10.50;7.43;;;10.20;99.90;;;;;;5099267;28;20854;-57
2022/05/05 03:04:24;;;;;;;10.40;8.80;;;10.20;99.90;;;;;;5091316;28;20273;-57
2022/05/05 03:06:49;;;;;;;14.37;7.10;;;10.20;99.90;;;;;;5091209;28;20515;-58
2022/05/05 03:09:15;;;;;;;8.53;7.23;;;10.20;99.90;;;;;;5099165;28;20187;-58
2022/05/05 03:11:41;;;;;;;11.60;6.23;;;10.20;99.90;;;;;;5106312;28;20181;-58
2022/05/05 03:14:06;;;;;;;6.53;5.83;;;10.20;99.90;;;;;;5107652;28;20898;-58
2022/05/05 03:16:32;;;;;;;7.00;5.90;;;10.20;99.90;;;;;;5104350;28;20268;-57
2022/05/05 03:18:57;;;;;;;6.40;5.80;;;10.20;99.90;;;;;;5099868;28;20290;-58
2022/05/05 03:21:23;;;;;;;6.30;5.67;;;10.10;99.90;;;;;;5097942;28;20204;-58
2022/05/05 03:23:49;;;;;;;6.43;5.47;;;10.20;99.90;;;;;;5095369;28;20553;-57
2022/05/05 03:26:14;;;;;;;7.73;5.63;;;10.10;99.90;;;;;;5100133;28;20234;-58
2022/05/05 03:28:40;;;;;;;9.97;5.70;;;10.20;99.90;;;;;;5106652;28;20165;-58
2022/05/05 03:31:06;;;;;;;7.63;5.93;;;10.10;99.90;;;;;;5097303;28;20248;-58
2022/05/05 03:33:32;;;;;;;5.43;4.93;;;10.10;99.90;;;;;;5078288;28;20545;-58
2022/05/05 03:35:58;;;;;;;6.17;5.33;;;10.10;99.90;;;;;;5101646;28;20775;-57
2022/05/05 03:38:24;;;;;;;6.70;5.60;;;10.10;99.90;;;;;;5106256;28;20431;-56
2022/05/05 03:40:51;;;;;;;12.17;7.40;;;10.10;99.90;;;;;;5095752;28;20174;-58
2022/05/05 03:43:17;;;;;;;9.80;6.87;;;10.10;99.90;;;;;;5099008;28;20714;-58
2022/05/05 03:45:43;;;;;;;9.50;7.17;;;10.10;99.90;;;;;;5087279;28;20427;-59
2022/05/05 03:48:09;;;;;;;12.07;8.10;;;10.10;99.90;;;;;;5100907;28;20423;-59
2022/05/05 03:50:35;;;;;;;9.20;6.87;;;10.10;99.90;;;;;;5083986;28;20170;-58
2022/05/05 03:53:00;;;;;;;7.50;6.40;;;10.10;99.90;;;;;;5081968;28;20472;-58
2022/05/05 03:55:27;;;;;;;8.37;6.07;;;10.10;99.90;;;;;;5099633;28;20174;-58
2022/05/05 03:57:53;;;;;;;7.23;5.80;;;10.10;99.90;;;;;;5094883;28;20281;-58
2022/05/05 04:00:19;;;;;;;10.80;6.90;;;10.10;99.90;;;;;;5089209;28;21005;-58
2022/05/05 04:03:30;;;;;;;8.00;5.90;;;10.10;99.90;;;;;;5106695;28;20241;-59
2022/05/05 04:05:30;;;;;;;9.07;6.33;;;10.00;99.90;;;;;;5105396;28;20449;-59
2022/05/05 04:07:56;;;;;;;8.97;6.63;;;10.00;99.90;;;;;;5096270;28;20949;-59
2022/05/05 04:10:21;;;;;;;7.23;5.90;;;10.00;99.90;;;;;;5091853;28;20256;-58
2022/05/05 04:12:47;;;;;;;6.37;5.73;;;10.00;99.90;;;;;;5094659;28;20678;-58
2022/05/05 04:15:13;;;;;;;11.47;7.23;;;10.00;99.90;;;;;;5098071;28;20501;-58
2022/05/05 04:17:38;;;;;;;9.47;6.90;;;10.00;99.90;;;;;;5103164;28;20165;-59
2022/05/05 04:20:04;;;;;;;8.27;7.00;;;10.00;99.90;;;;;;5095093;28;20237;-55
2022/05/05 04:22:30;;;;;;;8.03;6.70;;;9.90;99.90;;;;;;5097144;28;20218;-53
2022/05/05 04:24:56;;;;;;;10.27;7.40;;;9.90;99.90;;;;;;5094814;28;20450;-53
2022/05/05 04:27:21;;;;;;;10.80;6.70;;;9.90;99.90;;;;;;5095465;28;20230;-53
2022/05/05 04:29:47;;;;;;;10.33;7.33;;;9.90;99.90;;;;;;5078806;28;20170;-57
2022/05/05 04:32:13;;;;;;;8.70;7.70;;;9.90;99.90;;;;;;5102017;28;20319;-57
2022/05/05 04:34:39;;;;;;;9.83;6.90;;;9.90;99.90;;;;;;5098781;28;20658;-57
2022/05/05 04:37:05;;;;;;;10.43;7.37;;;9.90;99.90;;;;;;5093619;28;20181;-55
2022/05/05 04:39:31;;;;;;;8.77;7.30;;;9.90;99.90;;;;;;5094902;28;20430;-57
2022/05/05 04:41:57;;;;;;;9.97;6.70;;;9.90;99.90;;;;;;5098846;28;20192;-56
2022/05/05 04:44:23;;;;;;;6.83;6.13;;;9.90;99.90;;;;;;5099573;28;20196;-56
2022/05/05 04:46:49;;;;;;;9.40;7.10;;;10.00;99.90;;;;;;5097939;28;20422;-55
2022/05/05 04:49:14;;;;;;;8.60;6.77;;;10.00;99.90;;;;;;5097829;28;20763;-56
2022/05/05 04:51:40;;;;;;;7.50;5.93;;;10.00;99.90;;;;;;5100026;28;20677;-56
2022/05/05 04:54:06;;;;;;;9.40;6.30;;;10.00;99.90;;;;;;5093218;28;20248;-53
2022/05/05 04:56:31;;;;;;;12.50;5.60;;;10.00;99.90;;;;;;5098491;28;20173;-56
2022/05/05 04:58:57;;;;;;;7.60;5.97;;;10.00;99.90;;;;;;5100532;27;20189;-55
2022/05/05 05:01:23;;;;;;;6.90;6.17;;;10.10;99.90;;;;;;5099558;28;20192;-55
2022/05/05 05:03:48;;;;;;;9.50;6.67;;;10.10;99.90;;;;;;5098652;28;20720;-56
2022/05/05 05:06:14;;;;;;;12.23;6.80;;;10.10;99.90;;;;;;5095242;28;20169;-54
2022/05/05 05:08:42;;;;;;;7.40;6.40;;;10.20;99.90;;;;;;5097013;28;20169;-55
2022/05/05 05:11:08;;;;;;;7.20;5.60;;;10.20;99.90;;;;;;5094805;27;20177;-55
2022/05/05 05:13:35;;;;;;;8.53;5.80;;;10.20;99.90;;;;;;5101144;28;20446;-54
2022/05/05 05:16:01;;;;;;;8.50;6.13;;;10.20;99.90;;;;;;5098401;27;20256;-55
2022/05/05 05:18:27;;;;;;;6.90;6.20;;;10.20;99.90;;;;;;5104855;27;20536;-55
2022/05/05 05:20:53;;;;;;;7.23;6.40;;;10.30;99.90;;;;;;5100854;28;20170;-55
2022/05/05 05:23:18;;;;;;;7.90;6.40;;;10.30;99.90;;;;;;5100872;28;20313;-55
2022/05/05 05:25:44;;;;;;;8.73;6.50;;;10.30;99.90;;;;;;5101126;28;20665;-54
2022/05/05 05:28:12;;;;;;;8.20;5.97;;;10.30;99.90;;;;;;5103841;28;20197;-55
2022/05/05 05:30:37;;;;;;;8.97;6.97;;;10.30;99.90;;;;;;5102324;28;20452;-56
2022/05/05 05:33:03;;;;;;;10.00;7.00;;;10.30;99.90;;;;;;5097157;28;20477;-58
2022/05/05 05:35:29;;;;;;;10.80;6.73;;;10.30;99.90;;;;;;5106499;28;20192;-58
2022/05/05 05:37:54;;;;;;;8.20;7.07;;;10.30;99.90;;;;;;5095094;28;20184;-58
2022/05/05 05:40:20;;;;;;;9.40;6.83;;;10.30;99.90;;;;;;5108285;28;20561;-58
2022/05/05 05:42:46;;;;;;;8.70;7.43;;;10.40;99.90;;;;;;5103793;28;20201;-59
2022/05/05 05:45:11;;;;;;;9.40;6.30;;;10.40;99.90;;;;;;5102869;28;20265;-60
2022/05/05 05:47:37;;;;;;;7.43;6.73;;;10.40;99.90;;;;;;5105851;28;20338;-58
2022/05/05 05:50:03;;;;;;;8.40;6.73;;;10.40;99.90;;;;;;5103044;28;20197;-57
2022/05/05 05:52:29;;;;;;;8.60;6.80;;;10.40;99.90;;;;;;5103756;28;20204;-58
2022/05/05 05:54:54;;;;;;;7.87;6.77;;;10.40;99.90;;;;;;5079512;28;20420;-59
2022/05/05 05:57:20;;;;;;;8.33;7.03;;;10.40;99.90;;;;;;5090083;28;20542;-58
2022/05/05 05:59:45;;;;;;;10.80;7.37;;;10.40;99.90;;;;;;5079063;28;20208;-55
2022/05/05 06:04:55;;;;;;;8.70;7.27;;;10.40;99.90;;;;;;5106525;28;20620;-58
2022/05/05 06:07:21;;;;;;;8.87;6.90;;;10.40;99.90;;;;;;5109137;28;20930;-56
2022/05/05 06:09:46;;;;;;;8.33;7.10;;;10.40;99.90;;;;;;5110002;28;20204;-57
2022/05/05 06:12:12;;;;;;;9.00;7.47;;;10.40;99.90;;;;;;5110790;28;20544;-57
2022/05/05 06:14:37;;;;;;;10.97;7.57;;;10.40;99.90;;;;;;5110020;28;20165;-57
2022/05/05 06:17:03;;;;;;;13.27;8.87;;;10.50;99.90;;;;;;5109839;28;20169;-57
2022/05/05 06:19:29;;;;;;;17.10;8.83;;;10.40;99.90;;;;;;5097707;28;20192;-56
2022/05/05 06:21:56;;;;;;;13.20;7.53;;;10.40;99.90;;;;;;5102494;28;20250;-55
2022/05/05 06:24:22;;;;;;;11.30;7.60;;;10.40;99.90;;;;;;5102030;28;20208;-58
2022/05/05 06:26:47;;;;;;;9.90;7.93;;;10.40;99.90;;;;;;5103370;28;20432;-56
2022/05/05 06:29:13;;;;;;;9.37;7.57;;;10.40;99.90;;;;;;5075937;28;20588;-57
2022/05/05 06:31:39;;;;;;;11.33;7.63;;;10.40;99.90;;;;;;5101789;28;20260;-57
2022/05/05 06:34:04;;;;;;;8.50;7.60;;;10.40;99.90;;;;;;5100129;28;20280;-57
2022/05/05 06:36:30;;;;;;;10.23;7.93;;;10.50;99.90;;;;;;5105359;28;20184;-56
2022/05/05 06:38:56;;;;;;;10.50;7.00;;;10.50;99.90;;;;;;5108906;28;20173;-57
2022/05/05 06:41:21;;;;;;;10.93;7.40;;;10.50;99.90;;;;;;5107324;28;20291;-58
2022/05/05 06:43:47;;;;;;;8.50;6.67;;;10.50;99.90;;;;;;5090299;28;20209;-56
2022/05/05 06:46:13;;;;;;;8.70;6.30;;;10.50;99.90;;;;;;5108870;28;20200;-56
2022/05/05 06:48:38;;;;;;;8.60;6.60;;;10.50;99.90;;;;;;5099811;28;20173;-56
2022/05/05 06:51:04;;;;;;;7.73;6.07;;;10.50;99.90;;;;;;5091956;28;20638;-57
2022/05/05 06:53:30;;;;;;;10.77;6.83;;;10.50;99.90;;;;;;5107991;28;20193;-58
2022/05/05 06:55:58;;;;;;;6.20;5.60;;;10.60;99.90;;;;;;5107806;28;20864;-58
2022/05/05 06:58:25;;;;;;;6.70;5.83;;;10.60;99.90;;;;;;5101239;28;20173;-57
2022/05/05 07:03:35;;;;;;;8.50;7.30;;;10.70;99.90;;;;;;5091785;28;20470;-57
2022/05/05 07:06:01;;;;;;;12.57;9.20;;;10.70;99.90;;;;;;5102941;28;20503;-58
2022/05/05 07:10:52;;;;;;;21.43;9.70;;;10.70;99.90;;;;;;5083763;28;20273;-58
2022/05/05 07:11:13;;;;;;;11.53;8.53;;;10.70;99.90;;;;;;5109078;28;20406;-58
2022/05/05 07:13:39;;;;;;;14.43;9.27;;;10.70;99.90;;;;;;5099490;28;20539;-62
2022/05/05 07:16:04;;;;;;;13.40;9.20;;;10.80;99.90;;;;;;5095872;28;20620;-57
2022/05/05 07:18:30;;;;;;;13.53;8.90;;;10.80;99.90;;;;;;5104917;28;20177;-59
2022/05/05 07:20:56;;;;;;;11.20;8.80;;;10.90;99.90;;;;;;5099236;28;20521;-57
2022/05/05 07:23:21;;;;;;;14.10;8.80;;;11.00;99.90;;;;;;5100277;28;20201;-58
2022/05/05 07:25:47;;;;;;;15.30;9.30;;;11.00;99.90;;;;;;5101881;28;20177;-58
2022/05/05 07:28:15;;;;;;;15.40;9.10;;;11.10;99.90;;;;;;5098599;28;20166;-57
2022/05/05 07:30:40;;;;;;;11.53;8.97;;;11.10;99.90;;;;;;5098364;28;20237;-58
2022/05/05 07:33:07;;;;;;;13.20;8.53;;;11.20;99.90;;;;;;5099080;27;20447;-57
2022/05/05 07:35:33;;;;;;;10.00;8.20;;;11.30;99.90;;;;;;5105860;28;20178;-58
2022/05/05 07:37:58;;;;;;;14.27;8.90;;;11.40;99.90;;;;;;5098358;28;20414;-57
2022/05/05 07:40:24;;;;;;;10.87;8.70;;;11.40;99.90;;;;;;5099726;28;20435;-58
2022/05/05 07:42:50;;;;;;;12.20;8.97;;;11.40;99.90;;;;;;5101940;28;20242;-57
2022/05/05 07:45:16;;;;;;;12.40;8.43;;;11.50;99.90;;;;;;5102700;28;20181;-58
2022/05/05 07:47:42;;;;;;;9.67;8.03;;;11.40;99.90;;;;;;5106726;28;20181;-58
2022/05/05 07:50:09;;;;;;;12.33;8.07;;;11.40;99.90;;;;;;5108499;28;20395;-57
2022/05/05 07:52:34;;;;;;;11.23;8.37;;;11.50;99.90;;;;;;5097793;28;20231;-58
2022/05/05 07:55:00;;;;;;;9.40;7.77;;;11.50;99.90;;;;;;5069632;28;20408;-58
2022/05/05 07:57:26;;;;;;;10.73;8.30;;;11.60;99.90;;;;;;5096647;28;20222;-60
2022/05/05 07:59:52;;;;;;;10.97;8.30;;;11.70;99.90;;;;;;5095553;28;20578;-57
2022/05/05 08:02:18;;;;;;;10.63;7.77;;;11.70;99.90;;;;;;5101381;28;20466;-57
2022/05/05 08:04:44;;;;;;;10.80;8.40;;;11.80;99.90;;;;;;5105749;28;20196;-57
2022/05/05 08:07:11;;;;;;;8.73;7.70;;;11.90;99.90;;;;;;5105137;28;20441;-56
2022/05/05 08:09:37;;;;;;;10.30;8.43;;;11.90;99.90;;;;;;5105812;28;20831;-56
2022/05/05 08:12:04;;;;;;;11.17;8.47;;;11.90;99.90;;;;;;5089566;28;20458;-56
2022/05/05 08:14:30;;;;;;;12.93;8.27;;;12.00;99.90;;;;;;5095358;28;20466;-56
2022/05/05 08:16:57;;;;;;;12.00;8.23;;;12.00;99.90;;;;;;5087378;28;20494;-56
2022/05/05 08:19:23;;;;;;;10.50;7.83;;;12.10;99.90;;;;;;5101568;28;20639;-56
2022/05/05 08:21:50;;;;;;;10.00;8.60;;;12.10;99.90;;;;;;5082516;28;20571;-55
2022/05/05 08:29:44;;;;;;;12.77;7.93;;;12.30;99.90;;;;;;5108972;28;20471;-56
2022/05/05 08:32:10;;;;;;;10.10;8.43;;;12.20;99.90;;;;;;5110965;28;20419;-56
2022/05/05 08:34:35;;;;;;;9.87;7.47;;;12.20;99.90;;;;;;5108307;28;20184;-56
2022/05/05 08:37:01;;;;;;;11.67;8.50;;;12.30;99.90;;;;;;5105763;28;20329;-55
2022/05/05 08:39:27;;;;;;;8.37;7.30;;;12.30;99.90;;;;;;5109904;28;20650;-56
2022/05/05 08:41:53;;;;;;;13.60;8.70;;;12.40;99.90;;;;;;5109615;28;20185;-56
2022/05/05 08:44:19;;;;;;;8.97;8.03;;;12.40;99.90;;;;;;5090729;28;20208;-56
2022/05/05 08:46:50;;;;;;;10.23;7.40;;;12.50;99.90;;;;;;5099662;28;20418;-56
2022/05/05 08:49:20;;;;;;;9.43;8.13;;;12.50;99.90;;;;;;5104383;28;20677;-55
2022/05/05 08:51:49;;;;;;;9.60;7.43;;;12.60;99.90;;;;;;5110272;27;20454;-55
2022/05/05 08:54:18;;;;;;;10.37;7.97;;;12.60;99.90;;;;;;5105293;28;20442;-55
2022/05/05 08:56:48;;;;;;;10.03;8.40;;;12.70;99.90;;;;;;5110399;28;20559;-56
2022/05/05 08:59:16;;;;;;;11.67;7.97;;;12.70;99.90;;;;;;5111461;28;20819;-56
2022/05/05 09:01:43;;;;;;;13.10;8.30;;;12.70;99.90;;;;;;5092292;28;20427;-56
2022/05/05 09:04:09;;;;;;;11.20;8.40;;;12.70;99.90;;;;;;5110235;28;20843;-56
2022/05/05 09:06:42;;;;;;;11.33;8.40;;;12.70;99.90;;;;;;5093371;28;20428;-56
2022/05/05 09:09:24;;;;;;;13.33;7.13;;;12.70;99.90;;;;;;5106161;27;21044;-58
2022/05/05 09:12:11;;;;;;;10.97;7.43;;;12.70;99.90;;;;;;5088635;28;20509;-57
2022/05/05 09:14:46;;;;;;;11.37;7.60;;;12.70;99.90;;;;;;5111003;28;20438;-57
2022/05/05 09:17:13;;;;;;;12.80;8.03;;;12.70;99.90;;;;;;5107079;28;20422;-58
2022/05/05 09:19:42;;;;;;;9.67;7.17;;;12.70;99.90;;;;;;5083861;28;20437;-57
2022/05/05 09:22:09;;;;;;;12.60;8.00;;;12.70;99.90;;;;;;5104067;28;20934;-57
2022/05/05 09:24:35;;;;;;;11.07;7.30;;;12.80;99.90;;;;;;5101884;28;20458;-56
2022/05/05 09:27:32;;;;;;;11.80;7.70;;;12.80;99.90;;;;;;5109255;28;20398;-56
2022/05/05 09:30:00;;;;;;;10.57;8.30;;;12.90;99.90;;;;;;5110097;28;20836;-57
2022/05/05 09:32:31;;;;;;;11.43;8.50;;;13.00;99.90;;;;;;5109763;28;20450;-57
2022/05/05 09:34:57;;;;;;;8.50;7.63;;;13.10;99.90;;;;;;5109186;28;20464;-57
2022/05/05 09:37:23;;;;;;;9.73;8.03;;;13.20;99.90;;;;;;5108757;28;20431;-56
2022/05/05 09:40:00;;;;;;;10.07;7.23;;;13.30;99.90;;;;;;5109347;28;20486;-57
2022/05/05 09:42:38;;;;;;;9.00;6.77;;;13.40;99.90;;;;;;5110082;28;20745;-57
2022/05/05 09:45:32;;;;;;;8.33;7.43;;;13.40;99.90;;;;;;5105150;28;20464;-57
2022/05/05 09:48:02;;;;;;;10.00;7.60;;;13.40;99.90;;;;;;5087706;28;20430;-57
2022/05/05 09:50:30;;;;;;;8.10;6.10;;;13.40;99.90;;;;;;5109636;28;20438;-57
2022/05/05 09:58:35;;;;;;;8.30;7.03;;;13.50;99.90;;;;;;5096981;28;20422;-55
2022/05/05 10:01:08;;;;;;;8.43;6.23;;;13.60;99.90;;;;;;5105516;28;20483;-55
2022/05/05 10:06:31;;;;;;;11.93;7.33;;;13.80;99.90;;;;;;5107691;28;20430;-55
2022/05/05 10:09:01;;;;;;;7.53;6.07;;;13.90;99.90;;;;;;5109847;28;20440;-55
2022/05/05 10:11:27;;;;;;;11.07;7.70;;;14.00;99.90;;;;;;5101664;28;20423;-56
2022/05/05 10:13:53;;;;;;;7.87;7.07;;;14.10;99.90;;;;;;5109245;28;20459;-55
2022/05/05 10:16:20;;;;;;;8.43;6.77;;;14.20;99.90;;;;;;5104825;28;20273;-56
2022/05/05 10:18:46;;;;;;;12.90;6.47;;;14.30;99.90;;;;;;5093342;27;20443;-57
2022/05/05 10:21:31;;;;;;;7.93;6.60;;;14.30;99.90;;;;;;5100953;28;20478;-56
2022/05/05 10:24:09;;;;;;;11.40;6.60;;;14.40;99.90;;;;;;5100887;28;20474;-56
2022/05/05 10:26:35;;;;;;;7.60;6.43;;;14.50;99.90;;;;;;5083999;28;20423;-57
2022/05/05 10:29:02;;;;;;;7.70;6.03;;;14.40;99.90;;;;;;5101418;28;20423;-57
2022/05/05 10:31:30;;;;;;;5.80;5.10;;;14.30;99.90;;;;;;5100863;28;20622;-57
2022/05/05 10:34:14;;;;;;;8.00;6.50;;;14.30;99.90;;;;;;5098855;28;20539;-57
2022/05/05 10:36:55;;;;;;;7.07;5.23;;;14.30;99.90;;;;;;5086381;28;20473;-57
2022/05/05 10:39:22;;;;;;;8.60;5.70;;;14.20;99.90;;;;;;5101911;28;20434;-56
2022/05/05 10:41:48;;;;;;;6.63;5.90;;;14.30;99.90;;;;;;5104703;28;20579;-57
2022/05/05 10:44:19;;;;;;;6.23;5.50;;;14.30;99.90;;;;;;5097014;28;20531;-57
2022/05/05 10:47:02;;;;;;;6.53;5.77;;;14.30;99.90;;;;;;5100851;28;20487;-56
2022/05/05 10:49:33;;;;;;;8.47;5.60;;;14.40;99.90;;;;;;5103404;28;20521;-57
2022/05/05 10:52:11;;;;;;;6.87;5.43;;;14.40;99.90;;;;;;5102147;28;21154;-56
2022/05/05 10:54:42;;;;;;;6.50;5.27;;;14.50;99.90;;;;;;5105766;28;20423;-57
2022/05/05 10:57:25;;;;;;;8.80;4.97;;;14.50;99.90;;;;;;5098135;28;20435;-57
2022/05/05 11:00:11;;;;;;;5.93;4.90;;;14.60;99.90;;;;;;5090102;28;20930;-56
2022/05/05 11:02:38;;;;;;;7.20;5.77;;;14.70;99.90;;;;;;5108374;28;20442;-57
2022/05/05 11:05:28;;;;;;;8.90;5.70;;;14.70;99.90;;;;;;5094919;28;20459;-57
2022/05/05 11:08:17;;;;;;;5.67;5.17;;;14.80;99.90;;;;;;5095816;28;20473;-57
2022/05/05 11:13:35;;;;;;;7.17;5.27;;;14.90;99.90;;;;;;5093162;28;20516;-57
2022/05/05 11:22:09;;;;;;;5.80;5.20;;;15.30;99.90;;;;;;5100936;28;20495;-58
2022/05/05 11:24:36;;;;;;;6.10;5.50;;;15.40;99.90;;;;;;5102219;28;20470;-56
2022/05/05 11:27:02;;;;;;;6.83;5.00;;;15.50;99.90;;;;;;5108256;28;20411;-56
2022/05/05 11:29:31;;;;;;;7.80;5.83;;;15.60;99.90;;;;;;5104648;28;20836;-57
2022/05/05 11:32:02;;;;;;;5.83;5.23;;;15.80;99.90;;;;;;5107119;28;20195;-56
2022/05/05 11:34:33;;;;;;;7.33;5.20;;;15.80;99.90;;;;;;5101941;28;20530;-56
2022/05/05 11:37:02;;;;;;;6.13;4.97;;;15.90;99.90;;;;;;5094338;28;20510;-56
2022/05/05 11:39:29;;;;;;;7.70;5.20;;;16.00;99.90;;;;;;5100416;28;21173;-57
2022/05/05 11:42:24;;;;;;;8.70;5.63;;;16.00;99.90;;;;;;5094027;28;20424;-56
2022/05/05 11:44:49;;;;;;;6.63;5.10;;;16.10;99.90;;;;;;5086450;28;20570;-57
2022/05/05 11:47:22;;;;;;;5.43;4.70;;;16.00;99.90;;;;;;5104037;28;20514;-58
2022/05/05 11:49:53;;;;;;;5.23;4.50;;;16.00;99.90;;;;;;5100804;28;20177;-57
2022/05/05 11:52:25;;;;;;;5.90;4.70;;;16.00;99.90;;;;;;5093575;28;20493;-57
2022/05/05 11:54:53;;;;;;;6.00;5.40;;;16.00;99.90;;;;;;5094860;28;20567;-57
2022/05/05 11:57:38;;;;;;;5.77;4.80;;;16.00;99.90;;;;;;5097807;28;20439;-58
2022/05/05 12:02:54;;;;;;;8.37;5.40;;;16.00;99.90;;;;;;5097679;28;20466;-57
2022/05/05 12:05:22;;;;;;;6.30;5.30;;;16.10;99.90;;;;;;5097068;28;20481;-57
2022/05/05 12:07:50;;;;;;;5.10;4.60;;;16.10;99.90;;;;;;5102026;28;20488;-56
2022/05/05 12:10:17;;;;;;;4.90;4.40;;;16.10;99.90;;;;;;5097239;28;20583;-56
2022/05/05 12:12:49;;;;;;;5.73;4.30;;;16.10;98.40;;;;;;5101573;28;20460;-56
2022/05/05 12:15:20;;;;;;;5.20;4.40;;;16.00;99.90;;;;;;5101986;28;21110;-56
2022/05/05 12:17:52;;;;;;;8.70;5.10;;;16.10;99.90;;;;;;5098273;28;20445;-56
2022/05/05 12:20:20;;;;;;;5.60;5.00;;;16.10;99.90;;;;;;5099462;28;20466;-55
2022/05/05 12:22:57;;;;;;;4.07;3.67;;;16.20;99.90;;;;;;5099631;28;20443;-58
2022/05/05 12:25:24;;;;;;;5.83;4.37;;;16.10;98.10;;;;;;5095887;28;20477;-58
2022/05/05 12:27:58;;;;;;;5.70;4.53;;;16.10;99.10;;;;;;5099690;28;20990;-58
2022/05/05 12:30:34;;;;;;;5.50;4.70;;;16.00;98.40;;;;;;5096708;28;20426;-59
2022/05/05 12:33:02;;;;;;;7.63;5.60;;;16.00;97.50;;;;;;5098470;28;20454;-59
2022/05/05 12:35:38;;;;;;;6.90;5.27;;;16.00;98.30;;;;;;5096174;28;20442;-59
2022/05/05 12:38:08;;;;;;;13.37;6.47;;;16.00;99.60;;;;;;5099768;28;20437;-59
2022/05/05 12:40:35;;;;;;;8.00;5.30;;;15.90;99.90;;;;;;5098757;28;20419;-59
2022/05/05 12:43:08;;;;;;;6.43;5.17;;;16.00;99.90;;;;;;5097783;28;20470;-59
2022/05/05 12:45:35;;;;;;;5.17;4.67;;;16.00;99.90;;;;;;5098751;28;20577;-58
2022/05/05 12:48:03;;;;;;;7.87;5.43;;;16.00;99.90;;;;;;5098123;28;21957;-58
2022/05/05 12:50:40;;;;;;;8.90;6.10;;;16.00;99.90;;;;;;5097906;28;20526;-57
2022/05/05 13:01:30;;;;;;;6.67;6.07;;;16.00;99.90;;;;;;5099533;28;20438;-58
2022/05/05 13:03:58;;;;;;;8.03;6.60;;;16.10;99.90;;;;;;5100080;28;20474;-57
2022/05/05 13:06:25;;;;;;;10.20;7.37;;;16.10;99.90;;;;;;5097153;28;20437;-57
2022/05/05 13:08:54;;;;;;;8.47;7.60;;;16.10;99.90;;;;;;5099304;28;20482;-58
2022/05/05 13:11:21;;;;;;;7.50;5.90;;;16.20;99.90;;;;;;5101022;28;20461;-58
2022/05/05 13:13:48;;;;;;;11.83;6.03;;;16.40;99.90;;;;;;5100147;28;21006;-58
2022/05/05 13:16:15;;;;;;;7.93;6.10;;;16.70;99.90;;;;;;5103995;27;20455;-58
2022/05/05 13:18:40;;;;;;;8.10;6.80;;;17.00;99.90;;;;;;5083099;28;20479;-57
2022/05/05 13:21:07;;;;;;;7.93;6.77;;;17.10;97.20;;;;;;5103739;28;20439;-57
2022/05/05 13:23:33;;;;;;;8.20;6.90;;;17.10;95.40;;;;;;5103745;28;20212;-57
2022/05/05 13:25:59;;;;;;;8.07;7.13;;;17.10;94.40;;;;;;5086509;28;20435;-57
2022/05/05 13:28:25;;;;;;;7.80;6.77;;;17.00;95.70;;;;;;5103928;27;20430;-57
2022/05/05 13:30:50;;;;;;;7.03;6.33;;;17.00;98.90;;;;;;5102048;28;20260;-58
2022/05/05 13:33:16;;;;;;;9.47;7.50;;;17.10;95.00;;;;;;5100128;28;20603;-57
2022/05/05 13:35:42;;;;;;;7.20;6.50;;;17.30;94.00;;;;;;5104491;28;20211;-58
2022/05/05 13:38:08;;;;;;;9.87;7.10;;;17.40;92.20;;;;;;5100547;28;20173;-58